createdAt,value
2022-12-20T00:00:51.467Z,-1.73
2022-12-20T00:03:17.984Z,-1.74
2022-12-20T00:05:44.786Z,-1.75
2022-12-20T00:08:11.322Z,-1.78
2022-12-20T00:10:38.298Z,-1.81
2022-12-20T00:13:04.836Z,-1.78
2022-12-20T00:15:31.590Z,-1.77
2022-12-20T00:17:58.464Z,-1.73
2022-12-20T00:20:25.579Z,-1.69
2022-12-20T00:22:52.084Z,-1.65
2022-12-20T00:25:20.308Z,-1.62
2022-12-20T00:27:50.109Z,-1.62
2022-12-20T00:30:16.978Z,-1.62
2022-12-20T00:32:43.993Z,-1.61
2022-12-20T00:35:10.510Z,-1.60
2022-12-20T00:37:36.889Z,-1.59
2022-12-20T00:40:04.259Z,-1.57
2022-12-20T00:42:30.653Z,-1.55
2022-12-20T00:44:57.031Z,-1.52
2022-12-20T00:47:23.438Z,-1.53
2022-12-20T00:49:49.854Z,-1.53
2022-12-20T00:52:16.239Z,-1.53
2022-12-20T00:54:42.623Z,-1.51
2022-12-20T00:57:09.001Z,-1.52
2022-12-20T00:59:35.471Z,-1.54
2022-12-20T01:02:02.012Z,-1.49
2022-12-20T01:04:28.686Z,-1.46
2022-12-20T01:06:55.078Z,-1.44
2022-12-20T01:09:21.469Z,-1.39
2022-12-20T01:11:47.885Z,-1.37
2022-12-20T01:14:15.446Z,-1.38
2022-12-20T01:16:43.573Z,-1.37
2022-12-20T01:19:11.220Z,-1.33
2022-12-20T01:21:39.960Z,-1.32
2022-12-20T01:24:06.475Z,-1.29
2022-12-20T01:26:33.099Z,-1.33
2022-12-20T01:29:00.281Z,-1.33
2022-12-20T01:31:27.640Z,-1.32
2022-12-20T01:33:54.201Z,-1.28
2022-12-20T01:36:22.054Z,-1.30
2022-12-20T01:38:48.488Z,-1.30
2022-12-20T01:41:16.924Z,-1.26
2022-12-20T01:43:53.870Z,-1.27
2022-12-20T01:46:21.869Z,-1.28
2022-12-20T01:48:53.925Z,-1.25
2022-12-20T01:51:21.077Z,-1.22
2022-12-20T01:53:48.964Z,-1.21
2022-12-20T01:56:15.392Z,-1.18
2022-12-20T01:58:42.221Z,-1.13
2022-12-20T02:01:08.747Z,-1.07
2022-12-20T02:03:35.371Z,-1.04
2022-12-20T02:06:14.043Z,-1.03
2022-12-20T02:08:40.502Z,-1.01
2022-12-20T02:11:19.873Z,-1.02
2022-12-20T02:13:49.384Z,-1.03
2022-12-20T02:16:21.084Z,-1.02
2022-12-20T02:19:03.553Z,-1.07
2022-12-20T02:21:32.908Z,-1.05
2022-12-20T02:24:18.023Z,-0.99
2022-12-20T02:26:56.765Z,-0.95
2022-12-20T02:29:40.444Z,-0.98
2022-12-20T02:32:10.153Z,-0.99
2022-12-20T02:34:37.483Z,-0.96
2022-12-20T02:37:04.402Z,-0.92
2022-12-20T02:39:31.573Z,-0.93
2022-12-20T02:42:01.570Z,-0.93
2022-12-20T02:44:48.433Z,-0.92
2022-12-20T02:47:18.062Z,-0.90
2022-12-20T02:49:46.168Z,-0.88
2022-12-20T02:52:13.974Z,-0.84
2022-12-20T02:54:40.565Z,-0.85
2022-12-20T02:57:29.996Z,-0.84
2022-12-20T03:00:01.694Z,-0.81
2022-12-20T03:02:28.809Z,-0.77
2022-12-20T03:04:57.182Z,-0.77
2022-12-20T03:07:23.621Z,-0.80
2022-12-20T03:09:50.011Z,-0.75
2022-12-20T03:12:16.846Z,-0.78
2022-12-20T03:14:43.575Z,-0.78
2022-12-20T03:17:10.092Z,-0.77
2022-12-20T03:19:36.652Z,-0.74
2022-12-20T03:22:03.139Z,-0.73
2022-12-20T03:24:29.523Z,-0.72
2022-12-20T03:26:56.003Z,-0.69
2022-12-20T03:29:22.397Z,-0.68
2022-12-20T03:31:48.757Z,-0.66
2022-12-20T03:34:15.494Z,-0.66
2022-12-20T03:36:41.934Z,-0.67
2022-12-20T03:39:08.362Z,-0.68
2022-12-20T03:41:34.949Z,-0.65
2022-12-20T03:44:01.388Z,-0.63
2022-12-20T03:46:28.112Z,-0.62
2022-12-20T03:48:54.754Z,-0.60
2022-12-20T03:51:21.132Z,-0.60
2022-12-20T03:53:47.505Z,-0.59
2022-12-20T03:56:14.174Z,-0.55
2022-12-20T03:58:40.723Z,-0.52
2022-12-20T04:01:21.091Z,-0.50
2022-12-20T04:03:47.693Z,-0.50
2022-12-20T04:06:14.168Z,-0.47
2022-12-20T04:08:40.608Z,-0.47
2022-12-20T04:11:16.206Z,-0.44
2022-12-20T04:13:43.458Z,-0.48
2022-12-20T04:16:10.122Z,-0.51
2022-12-20T04:18:36.594Z,-0.47
2022-12-20T04:21:03.581Z,-0.48
2022-12-20T04:23:30.060Z,-0.53
2022-12-20T04:25:56.430Z,-0.55
2022-12-20T04:28:22.907Z,-0.57
2022-12-20T04:30:49.352Z,-0.56
2022-12-20T04:33:15.744Z,-0.51
2022-12-20T04:35:42.260Z,-0.51
2022-12-20T04:38:08.740Z,-0.52
2022-12-20T04:40:35.122Z,-0.45
2022-12-20T04:43:01.501Z,-0.47
2022-12-20T04:45:27.956Z,-0.43
2022-12-20T04:47:54.360Z,-0.39
2022-12-20T04:50:21.033Z,-0.41
2022-12-20T04:53:05.726Z,-0.43
2022-12-20T04:55:36.489Z,-0.40
2022-12-20T04:58:07.515Z,-0.38
2022-12-20T05:00:34.334Z,-0.37
2022-12-20T05:03:01.163Z,-0.39
2022-12-20T05:05:28.000Z,-0.37
2022-12-20T05:07:55.083Z,-0.33
2022-12-20T05:10:21.565Z,-0.29
2022-12-20T05:12:47.956Z,-0.26
2022-12-20T05:15:14.472Z,-0.22
2022-12-20T05:17:40.914Z,-0.19
2022-12-20T05:20:07.631Z,-0.19
2022-12-20T05:22:52.977Z,-0.17
2022-12-20T05:25:37.766Z,-0.18
2022-12-20T05:28:04.255Z,-0.17
2022-12-20T05:30:30.649Z,-0.20
2022-12-20T05:32:57.049Z,-0.18
2022-12-20T05:35:23.455Z,-0.17
2022-12-20T05:37:50.078Z,-0.21
2022-12-20T05:40:17.693Z,-0.18
2022-12-20T05:42:44.718Z,-0.13
2022-12-20T05:45:11.283Z,-0.15
2022-12-20T05:47:39.055Z,-0.20
2022-12-20T05:50:05.944Z,-0.18
2022-12-20T05:52:32.344Z,-0.18
2022-12-20T05:54:58.789Z,-0.15
2022-12-20T05:57:25.161Z,-0.10
2022-12-20T05:59:51.580Z,-0.08
2022-12-20T06:02:18.127Z,-0.08
2022-12-20T06:04:44.580Z,-0.10
2022-12-20T06:07:11.096Z,-0.15
2022-12-20T06:09:37.471Z,-0.14
2022-12-20T06:12:03.983Z,-0.18
2022-12-20T06:14:30.443Z,-0.20
2022-12-20T06:16:56.895Z,-0.18
2022-12-20T06:19:23.443Z,-0.21
2022-12-20T06:21:49.874Z,-0.21
2022-12-20T06:24:16.313Z,-0.29
2022-12-20T06:26:42.812Z,-0.28
2022-12-20T06:29:10.445Z,-0.25
2022-12-20T06:31:36.888Z,-0.21
2022-12-20T06:34:03.371Z,-0.18
2022-12-20T06:36:29.746Z,-0.19
2022-12-20T06:38:56.105Z,-0.23
2022-12-20T06:41:22.498Z,-0.23
2022-12-20T06:43:49.023Z,-0.25
2022-12-20T06:46:15.484Z,-0.25
2022-12-20T06:48:42.047Z,-0.32
2022-12-20T06:51:08.472Z,-0.35
2022-12-20T06:53:34.879Z,-0.37
2022-12-20T06:56:01.277Z,-0.33
2022-12-20T06:58:27.732Z,-0.30
2022-12-20T07:00:54.496Z,-0.25
2022-12-20T07:03:21.105Z,-0.26
2022-12-20T07:05:54.036Z,-0.27
2022-12-20T07:08:21.205Z,-0.22
2022-12-20T07:10:47.692Z,-0.24
2022-12-20T07:13:14.298Z,-0.30
2022-12-20T07:15:40.674Z,-0.32
2022-12-20T07:18:07.092Z,-0.30
2022-12-20T07:20:33.577Z,-0.27
2022-12-20T07:23:00.218Z,-0.27
2022-12-20T07:25:26.638Z,-0.30
2022-12-20T07:27:53.085Z,-0.28
2022-12-20T07:30:20.448Z,-0.23
2022-12-20T07:32:46.962Z,-0.24
2022-12-20T07:35:14.199Z,-0.24
2022-12-20T07:37:40.739Z,-0.25
2022-12-20T07:40:08.055Z,-0.29
2022-12-20T07:42:38.042Z,-0.28
2022-12-20T07:45:07.088Z,-0.24
2022-12-20T07:47:35.982Z,-0.18
2022-12-20T07:50:03.102Z,-0.06
2022-12-20T07:52:29.960Z,0.04
2022-12-20T07:55:01.531Z,0.13
2022-12-20T07:57:31.082Z,0.26
2022-12-20T07:59:59.323Z,0.25
2022-12-20T08:02:29.384Z,0.23
2022-12-20T08:04:56.145Z,0.20
2022-12-20T08:07:22.968Z,0.18
2022-12-20T08:09:49.676Z,0.19
2022-12-20T08:12:17.763Z,0.16
2022-12-20T08:14:44.574Z,0.16
2022-12-20T08:17:11.951Z,0.17
2022-12-20T08:19:38.859Z,0.23
2022-12-20T08:22:06.319Z,0.23
2022-12-20T08:24:33.523Z,0.29
2022-12-20T08:26:59.959Z,0.26
2022-12-20T08:29:26.349Z,0.29
2022-12-20T08:31:52.728Z,0.30
2022-12-20T08:34:19.161Z,0.29
2022-12-20T08:36:45.569Z,0.25
2022-12-20T08:39:11.973Z,0.20
2022-12-20T08:41:38.933Z,0.26
2022-12-20T08:44:05.730Z,0.30
2022-12-20T08:46:32.132Z,0.35
2022-12-20T08:48:58.637Z,0.36
2022-12-20T08:51:25.115Z,0.35
2022-12-20T08:53:52.233Z,0.39
2022-12-20T08:56:18.802Z,0.42
2022-12-20T08:58:45.307Z,0.44
2022-12-20T09:01:13.824Z,0.48
2022-12-20T09:03:40.606Z,0.50
2022-12-20T09:06:10.425Z,0.45
2022-12-20T09:08:37.726Z,0.41
2022-12-20T09:11:05.743Z,0.43
2022-12-20T09:13:34.412Z,0.47
2022-12-20T09:16:04.501Z,0.51
2022-12-20T09:18:31.479Z,0.56
2022-12-20T09:21:04.691Z,0.60
2022-12-20T09:23:31.971Z,0.63
2022-12-20T09:26:01.909Z,0.64
2022-12-20T09:28:28.333Z,0.65
2022-12-20T09:30:57.807Z,0.68
2022-12-20T09:33:24.249Z,0.70
2022-12-20T09:35:50.681Z,0.76
2022-12-20T09:38:17.095Z,0.77
2022-12-20T09:40:51.605Z,0.78
2022-12-20T09:43:18.359Z,0.78
2022-12-20T09:45:47.326Z,0.75
2022-12-20T09:48:18.873Z,0.72
2022-12-20T09:50:58.052Z,0.70
2022-12-20T09:53:33.916Z,0.65
2022-12-20T09:56:20.600Z,0.58
2022-12-20T09:59:02.147Z,0.56
2022-12-20T10:01:38.075Z,0.56
2022-12-20T10:04:33.944Z,0.60
2022-12-20T10:07:03.712Z,0.66
2022-12-20T10:09:30.184Z,0.72
2022-12-20T10:12:15.443Z,0.77
2022-12-20T10:15:00.313Z,0.82
2022-12-20T10:17:32.564Z,0.83
2022-12-20T10:20:19.093Z,0.91
2022-12-20T10:22:49.394Z,0.94
2022-12-20T10:25:20.336Z,0.98
2022-12-20T10:27:48.900Z,1.03
2022-12-20T10:30:21.136Z,1.06
2022-12-20T10:32:49.363Z,1.11
2022-12-20T10:35:16.081Z,1.08
2022-12-20T10:38:09.221Z,1.11
2022-12-20T10:43:36.566Z,1.19
2022-12-20T10:46:07.316Z,1.15
2022-12-20T10:48:35.313Z,1.21
2022-12-20T10:51:15.885Z,1.26
2022-12-20T10:54:03.225Z,1.29
2022-12-20T10:56:34.206Z,1.33
2022-12-20T10:59:02.316Z,1.27
2022-12-20T11:01:33.788Z,1.27
2022-12-20T11:04:04.806Z,1.24
2022-12-20T11:06:37.438Z,1.26
2022-12-20T11:09:22.598Z,1.23
2022-12-20T11:11:57.864Z,1.19
2022-12-20T11:14:24.695Z,1.19
2022-12-20T11:16:53.395Z,1.18
2022-12-20T11:19:19.856Z,1.19
2022-12-20T11:21:46.280Z,1.16
2022-12-20T11:24:17.938Z,1.19
2022-12-20T11:26:50.153Z,1.28
2022-12-20T11:29:19.611Z,1.29
2022-12-20T11:31:49.087Z,1.33
2022-12-20T11:34:34.345Z,1.38
2022-12-20T11:37:19.379Z,1.37
2022-12-20T11:39:57.768Z,1.35
2022-12-20T11:42:24.359Z,1.38
2022-12-20T11:45:06.603Z,1.37
2022-12-20T11:47:53.684Z,1.36
2022-12-20T11:50:38.606Z,1.35
2022-12-20T11:53:10.804Z,1.40
2022-12-20T11:55:41.745Z,1.46
2022-12-20T11:58:19.744Z,1.49
2022-12-20T12:01:07.094Z,1.46
2022-12-20T12:04:09.033Z,1.46
2022-12-20T12:06:37.891Z,1.44
2022-12-20T12:09:36.578Z,1.41
2022-12-20T12:12:11.706Z,1.32
2022-12-20T12:14:56.903Z,1.38
2022-12-20T12:17:39.764Z,1.34
2022-12-20T12:20:18.196Z,1.41
2022-12-20T12:22:45.461Z,1.39
2022-12-20T12:25:15.536Z,1.38
2022-12-20T12:27:42.082Z,1.43
2022-12-20T12:30:12.127Z,1.45
2022-12-20T12:32:45.147Z,1.49
2022-12-20T12:35:18.677Z,1.56
2022-12-20T12:38:03.668Z,1.61
2022-12-20T12:40:52.482Z,1.57
2022-12-20T12:43:37.943Z,1.58
2022-12-20T12:46:14.222Z,1.54
2022-12-20T12:49:07.489Z,1.53
2022-12-20T12:51:36.267Z,1.49
2022-12-20T12:54:22.326Z,1.52
2022-12-20T12:56:49.988Z,1.55
2022-12-20T12:59:22.752Z,1.43
2022-12-20T13:01:51.738Z,1.47
2022-12-20T13:04:19.681Z,1.49
2022-12-20T13:06:48.897Z,1.51
2022-12-20T13:09:18.219Z,1.57
2022-12-20T13:11:47.506Z,1.63
2022-12-20T13:14:24.671Z,1.71
2022-12-20T13:19:38.985Z,1.74
2022-12-20T13:22:17.392Z,1.75
2022-12-20T13:24:48.662Z,1.75
2022-12-20T13:27:18.028Z,1.77
2022-12-20T13:29:56.623Z,1.79
2022-12-20T13:32:42.096Z,1.81
2022-12-20T13:35:29.617Z,1.68
2022-12-20T13:38:05.827Z,1.66
2022-12-20T13:40:35.450Z,1.59
2022-12-20T13:43:25.281Z,1.55
2022-12-20T13:46:11.941Z,1.49
2022-12-20T13:48:38.374Z,1.49
2022-12-20T13:51:05.716Z,1.46
2022-12-20T13:53:32.247Z,1.45
2022-12-20T13:55:58.724Z,1.50
2022-12-20T13:58:26.046Z,1.51
2022-12-20T14:00:53.417Z,1.52
2022-12-20T14:03:25.284Z,1.51
2022-12-20T14:05:59.669Z,1.45
2022-12-20T14:08:28.677Z,1.41
2022-12-20T14:10:55.193Z,1.46
2022-12-20T14:13:23.216Z,1.42
2022-12-20T14:15:50.234Z,1.46
2022-12-20T14:18:20.940Z,1.49
2022-12-20T14:20:49.388Z,1.51
2022-12-20T14:23:20.923Z,1.54
2022-12-20T14:25:55.379Z,1.58
2022-12-20T14:28:35.621Z,1.50
2022-12-20T14:31:03.451Z,1.49
2022-12-20T14:33:40.238Z,1.52
2022-12-20T14:36:15.555Z,1.51
2022-12-20T14:38:43.129Z,1.43
2022-12-20T14:41:28.416Z,1.41
2022-12-20T14:43:59.494Z,1.42
2022-12-20T14:46:26.102Z,1.41
2022-12-20T14:49:25.319Z,1.39
2022-12-20T14:51:53.025Z,1.33
2022-12-20T14:55:05.789Z,1.33
2022-12-20T14:57:20.135Z,1.35
2022-12-20T14:59:56.327Z,1.37
2022-12-20T15:02:39.147Z,1.32
2022-12-20T15:05:28.984Z,1.26
2022-12-20T15:07:55.418Z,1.20
2022-12-20T15:10:23.630Z,1.14
2022-12-20T15:12:50.674Z,1.14
2022-12-20T15:15:29.421Z,1.20
2022-12-20T15:17:56.363Z,1.15
2022-12-20T15:20:22.804Z,1.09
2022-12-20T15:22:49.263Z,1.04
2022-12-20T15:25:16.529Z,1.04
2022-12-20T15:27:43.339Z,1.06
2022-12-20T15:30:16.410Z,1.06
2022-12-20T15:32:54.479Z,1.08
2022-12-20T15:35:21.912Z,1.14
2022-12-20T15:37:48.331Z,1.20
2022-12-20T15:40:15.044Z,1.27
2022-12-20T15:42:42.910Z,1.29
2022-12-20T15:45:13.145Z,1.30
2022-12-20T15:47:39.614Z,1.29
2022-12-20T15:50:06.564Z,1.26
2022-12-20T15:52:33.513Z,1.19
2022-12-20T15:54:59.999Z,1.10
2022-12-20T15:57:26.791Z,1.10
2022-12-20T16:00:03.242Z,1.05
2022-12-20T16:02:31.218Z,0.96
2022-12-20T16:04:58.911Z,0.85
2022-12-20T16:07:26.367Z,0.80
2022-12-20T16:09:52.862Z,0.77
2022-12-20T16:12:23.267Z,0.73
2022-12-20T16:14:49.902Z,0.73
2022-12-20T16:17:16.626Z,0.75
2022-12-20T16:19:43.639Z,0.78
2022-12-20T16:22:17.211Z,0.77
2022-12-20T16:24:43.957Z,0.77
2022-12-20T16:27:10.567Z,0.75
2022-12-20T16:29:37.349Z,0.81
2022-12-20T16:32:08.053Z,0.89
2022-12-20T16:34:34.519Z,0.95
2022-12-20T16:37:01.005Z,0.86
2022-12-20T16:39:27.429Z,0.78
2022-12-20T16:41:54.539Z,0.77
2022-12-20T16:44:21.086Z,0.82
2022-12-20T16:46:47.655Z,0.90
2022-12-20T16:49:20.014Z,0.96
2022-12-20T16:51:48.443Z,0.91
2022-12-20T16:54:20.311Z,0.88
2022-12-20T16:56:47.698Z,0.79
2022-12-20T16:59:20.848Z,0.80
2022-12-20T17:01:49.481Z,0.77
2022-12-20T17:04:17.573Z,0.82
2022-12-20T17:06:44.510Z,0.84
2022-12-20T17:09:11.067Z,0.80
2022-12-20T17:11:37.770Z,0.82
2022-12-20T17:14:08.895Z,0.77
2022-12-20T17:16:39.468Z,0.75
2022-12-20T17:19:06.038Z,0.76
2022-12-20T17:24:25.230Z,0.81
2022-12-20T17:26:51.995Z,0.84
2022-12-20T17:29:18.623Z,0.86
2022-12-20T17:31:46.503Z,0.87
2022-12-20T17:34:26.713Z,0.84
2022-12-20T17:36:54.358Z,0.86
2022-12-20T17:39:21.728Z,0.87
2022-12-20T17:41:49.444Z,0.85
2022-12-20T17:44:20.601Z,0.78
2022-12-20T17:46:47.371Z,0.72
2022-12-20T17:49:14.409Z,0.68
2022-12-20T17:51:40.925Z,0.72
2022-12-20T17:54:14.493Z,0.74
2022-12-20T17:56:40.947Z,0.74
2022-12-20T17:59:09.422Z,0.73
2022-12-20T18:01:36.144Z,0.76
2022-12-20T18:04:06.784Z,0.77
2022-12-20T18:06:34.339Z,0.82
2022-12-20T18:09:00.933Z,0.83
2022-12-20T18:11:28.539Z,0.80
2022-12-20T18:13:56.416Z,0.76
2022-12-20T18:16:25.199Z,0.77
2022-12-20T18:18:53.328Z,0.64
2022-12-20T18:21:20.048Z,0.57
2022-12-20T18:23:47.103Z,0.54
2022-12-20T18:26:21.332Z,0.50
2022-12-20T18:28:49.134Z,0.48
2022-12-20T18:31:20.366Z,0.45
2022-12-20T18:33:51.100Z,0.39
2022-12-20T18:36:23.099Z,0.40
2022-12-20T18:38:50.426Z,0.43
2022-12-20T18:41:18.861Z,0.41
2022-12-20T18:43:45.341Z,0.45
2022-12-20T18:46:19.172Z,0.47
2022-12-20T18:48:45.935Z,0.50
2022-12-20T18:51:13.636Z,0.48
2022-12-20T18:53:41.073Z,0.53
2022-12-20T18:56:18.330Z,0.52
2022-12-20T18:58:45.813Z,0.50
2022-12-20T19:01:15.383Z,0.54
2022-12-20T19:03:42.088Z,0.53
2022-12-20T19:06:08.775Z,0.53
2022-12-20T19:08:35.245Z,0.50
2022-12-20T19:11:05.860Z,0.49
2022-12-20T19:13:32.373Z,0.42
2022-12-20T19:16:02.652Z,0.33
2022-12-20T19:18:29.355Z,0.29
2022-12-20T19:20:56.071Z,0.28
2022-12-20T19:23:22.550Z,0.37
2022-12-20T19:25:49.038Z,0.32
2022-12-20T19:28:15.475Z,0.27
2022-12-20T19:30:41.967Z,0.29
2022-12-20T19:33:08.434Z,0.26
2022-12-20T19:38:21.384Z,0.32
2022-12-20T19:40:52.060Z,0.35
2022-12-20T19:43:18.750Z,0.29
2022-12-20T19:45:45.288Z,0.35
2022-12-20T19:48:11.777Z,0.34
2022-12-20T19:50:38.330Z,0.31
2022-12-20T19:53:05.578Z,0.36
2022-12-20T19:55:32.326Z,0.37
2022-12-20T19:57:58.758Z,0.37
2022-12-20T20:00:27.410Z,0.35
2022-12-20T20:02:54.041Z,0.28
2022-12-20T20:05:20.713Z,0.29
2022-12-20T20:07:47.238Z,0.28
2022-12-20T20:10:13.707Z,0.29
2022-12-20T20:12:40.207Z,0.27
2022-12-20T20:15:07.052Z,0.21
2022-12-20T20:17:33.502Z,0.23
2022-12-20T20:19:59.964Z,0.21
2022-12-20T20:22:26.454Z,0.23
2022-12-20T20:24:52.949Z,0.21
2022-12-20T20:27:19.449Z,0.16
2022-12-20T20:29:48.504Z,0.14
2022-12-20T20:32:15.318Z,0.16
2022-12-20T20:34:41.790Z,0.21
2022-12-20T20:37:09.281Z,0.20
2022-12-20T20:39:35.857Z,0.20
2022-12-20T20:42:02.371Z,0.21
2022-12-20T20:44:28.847Z,0.28
2022-12-20T20:46:55.379Z,0.23
2022-12-20T20:49:21.896Z,0.31
2022-12-20T20:51:48.327Z,0.37
2022-12-20T20:54:15.344Z,0.41
2022-12-20T20:56:41.815Z,0.41
2022-12-20T20:59:13.467Z,0.41
2022-12-20T21:01:43.901Z,0.38
2022-12-20T21:04:10.426Z,0.39
2022-12-20T21:06:41.009Z,0.37
2022-12-20T21:09:08.778Z,0.42
2022-12-20T21:11:37.007Z,0.45
2022-12-20T21:14:03.765Z,0.42
2022-12-20T21:16:30.354Z,0.42
2022-12-20T21:18:57.829Z,0.40
2022-12-20T21:21:25.115Z,0.39
2022-12-20T21:23:51.701Z,0.39
2022-12-20T21:26:18.946Z,0.39
2022-12-20T21:28:45.736Z,0.38
2022-12-20T21:31:14.119Z,0.41
2022-12-20T21:33:40.907Z,0.40
2022-12-20T21:36:08.977Z,0.38
2022-12-20T21:38:35.416Z,0.40
2022-12-20T21:41:05.894Z,0.39
2022-12-20T21:43:32.806Z,0.43
2022-12-20T21:45:59.465Z,0.48
2022-12-20T21:48:26.454Z,0.47
2022-12-20T21:51:00.156Z,0.47
2022-12-20T21:53:27.058Z,0.42
2022-12-20T21:55:54.168Z,0.46
2022-12-20T21:58:20.636Z,0.51
2022-12-20T22:00:52.485Z,0.53
2022-12-20T22:03:21.753Z,0.55
2022-12-20T22:05:49.071Z,0.57
2022-12-20T22:08:15.721Z,0.59
2022-12-20T22:10:42.679Z,0.61
2022-12-20T22:13:10.261Z,0.60
2022-12-20T22:15:37.801Z,0.58
2022-12-20T22:18:04.914Z,0.54
2022-12-20T22:20:31.480Z,0.47
2022-12-20T22:22:57.959Z,0.45
2022-12-20T22:25:24.470Z,0.49
2022-12-20T22:27:51.602Z,0.51
2022-12-20T22:30:18.109Z,0.50
2022-12-20T22:32:44.602Z,0.52
2022-12-20T22:35:11.152Z,0.55
2022-12-20T22:37:37.691Z,0.51
2022-12-20T22:40:05.117Z,0.49
2022-12-20T22:42:31.587Z,0.47
2022-12-20T22:44:58.007Z,0.44
2022-12-20T22:50:08.887Z,0.32
2022-12-20T22:52:35.316Z,0.31
2022-12-20T22:55:01.930Z,0.29
2022-12-20T22:57:28.375Z,0.22
2022-12-20T22:59:58.774Z,0.18
2022-12-20T23:02:26.037Z,0.16
2022-12-20T23:04:52.960Z,0.11
2022-12-20T23:07:19.957Z,0.08
2022-12-20T23:09:47.102Z,0.07
2022-12-20T23:12:32.249Z,0.02
2022-12-20T23:15:17.200Z,-0.05
2022-12-20T23:17:43.637Z,-0.07
2022-12-20T23:20:29.190Z,-0.09
2022-12-20T23:22:56.424Z,-0.14
2022-12-20T23:25:22.883Z,-0.17
2022-12-20T23:27:49.824Z,-0.23
2022-12-20T23:30:17.803Z,-0.26
2022-12-20T23:32:44.735Z,-0.30
2022-12-20T23:35:12.811Z,-0.37
2022-12-20T23:37:39.524Z,-0.43
2022-12-20T23:40:06.821Z,-0.46
2022-12-20T23:42:33.258Z,-0.51
2022-12-20T23:44:59.703Z,-0.56
2022-12-20T23:47:26.183Z,-0.59
2022-12-20T23:49:52.635Z,-0.61
2022-12-20T23:52:19.110Z,-0.66
2022-12-20T23:54:45.540Z,-0.69
2022-12-20T23:57:12.415Z,-0.71
2022-12-20T23:59:38.929Z,-0.78
